Airports

 

 

Airport Name Latest METAR Visual Conditions
Atlanta International (ATL) KATL 050052Z 21004KT 10SM FEW055 SCT110 28/19 A2998 RMK AO2 SLP140 T02830194 VFR
Asheville Regional (AVL) KAVL 050054Z AUTO 00000KT 10SM SCT041 SCT120 22/20 A3007 RMK AO2 SLP159 T02170200 VFR
Birmingham International (BHM) KBHM 050053Z 36006KT 10SM SCT050 BKN250 27/20 A2998 RMK AO2 SLP144 T02670200 VFR
Chattanooga (CHA) KCHA 050053Z 35003KT 10SM SCT050 SCT075 SCT120 SCT200 26/21 A2998 RMK AO2 SLP146 CB DSNT S T02560211 $ VFR
Charlotte International (CLT) KCLT 050052Z 34004KT 10SM FEW042 SCT055 SCT110 SCT250 26/20 A2999 RMK AO2 SLP146 T02610200 VFR
Greensboro Piedmont-Triad (GSO) KGSO 050054Z 22003KT 10SM FEW040 SCT110 BKN250 26/21 A2998 RMK AO2 SLP142 T02610211 VFR
Greenville-Spartanburg International (GSP) KGSP 050053Z 00000KT 10SM CLR 25/21 A2999 RMK AO2 SLP145 T02500206 VFR
Middle Georgia Regional Airport (MCN) KMCN 050053Z AUTO 05006KT 10SM CLR 28/21 A2994 RMK AO2 SLP134 T02780211 VFR
Tri-Cities Airport (TRI) KTRI 050053Z 00000KT 10SM FEW040 SCT110 SCT250 22/19 A3003 RMK AO2 SLP144 T02220194 $ VFR
Knoxville Regional (TYS) KTYS 050053Z 14003KT 10SM SCT080 BKN150 BKN250 25/19 A2998 RMK AO2 SLP143 T02500189 VFR